Lighthouse Point, Florida
Current Conditions -  °F | °C
As of 11:53 AM on Monday 24 Nov 2014 (Local Time) from KPMP Reporting Station
Few Clouds Few Clouds  
Wind Chill: 85°   Ceiling: Unl
Heat Index: 95°   Visibility: 8mi
Dew Point: 77°   Wind: 15mph
Humidity: 77%   Direction: 160°SSE
Pressure: 30"   Gusts: NA
Location:  26.28°N, 80.09°W
Report Text: KPMP 241653Z 16013KT 8SM FEW013 29/25 A3000 RMK AO2 SLP159 T02940250
Loading
Personal Weather Stations






























Interactive Weather Map New forecast layout! Learn more

10-Day Weather Forecast

Advertisements
Track Severe Weather on mobile